Aeroporto :
LOGIN :

Iscrizione | Disclaimer

   EN    FR    IT 

 










Sommario :    VFR   VFR Marginale   IFR   IFR Intensivo   IFR Molto Intensivo
Visibilità : 
Base nubi : 
>= 8 km
>= 3000ft
5 / 8 km
1000 / 3000 ft
1500m / 5 km
500 / 1000 ft
800 / 1500m
200 / 500 ft
< 800m
< 200 ft
Simboli :   Temporali  Nebbia  Neve Forte  Precipitazioni Forti  Vento > 20 kt
SIGMETs :   Varie  Temporali  Ghiacco  Turbolenza  Onda orograficha  Ceneri Vulcaniche






- Altitudine del aeroporto : 120 ft
- Codice IATA : MME


EGNV - Durham Tees valley

ULTIMO METAR :
  • 140820Z 03013KT 9999 VCRA FEW027 SCT032 05/02 Q1002

METARs OBSOLETI :
  • 140750Z 02011KT 9999 -SHRA FEW025 SCT030 05/01 Q1001
  • 140720Z 04013KT 9999 FEW030 05/02 Q1000
  • 140650Z 04013KT 9999 SCT032 05/02 Q1000
  • 140620Z 04016KT 9999 -RA SCT028 05/03 Q1000
  • 140550Z 04010KT 9999 FEW038 05/02 Q0999

TAF TAF EGNV
Valido dal 14 a 09 ore il 14 a 18 ore UTC


140812Z 1409/1418 03014KT 9999 SCT028
PROB30
TEMPO 1409/1418 7000 SHRA
ATIS : +44 9012 018 111



MetMap, La meteo Aeronautica in un colpo d'occhio ! - Copyright ORBIFLY Dicembre 2007 - Disclaimer

ORBIFLY MET'MAP TEAM :

Programmazione e sviluppo : Alexandra Zaïnal
Concezione e sviluppo : Baudouin d'Aumeries
Co-Programmazione e sviluppo : Marc-Olivier Méhu
Supporto tecnico e logistico : Manuel Goepfert
Aiuto per la traduzione : Arnaldo La Scala

Contatto : metmap@orbifly.com




FONTI E CREDITI :

   NOAA